createdAt,value
2023-04-01T00:00:05.381Z,9.34
2023-04-01T00:01:05.426Z,9.34
2023-04-01T00:02:05.356Z,9.34
2023-04-01T00:03:05.409Z,9.34
2023-04-01T00:04:05.411Z,9.36
2023-04-01T00:05:05.325Z,9.36
2023-04-01T00:06:05.314Z,9.36
2023-04-01T00:07:05.344Z,9.36
2023-04-01T00:08:05.287Z,9.34
2023-04-01T00:09:05.341Z,9.34
2023-04-01T00:10:05.271Z,9.34
2023-04-01T00:11:05.251Z,9.33
2023-04-01T00:12:05.249Z,9.33
2023-04-01T00:13:05.266Z,9.34
2023-04-01T00:14:05.272Z,9.34
2023-04-01T00:15:05.252Z,9.33
2023-04-01T00:16:17.710Z,9.33
2023-04-01T00:17:05.248Z,9.30
2023-04-01T00:18:05.203Z,9.32
2023-04-01T00:19:05.182Z,9.32
2023-04-01T00:20:05.211Z,9.33
2023-04-01T00:21:05.211Z,9.33
2023-04-01T00:22:05.137Z,9.34
2023-04-01T00:23:05.189Z,9.34
2023-04-01T00:24:05.112Z,9.36
2023-04-01T00:25:05.120Z,9.36
2023-04-01T00:26:05.148Z,9.34
2023-04-01T00:27:05.106Z,9.34
2023-04-01T00:28:05.081Z,9.34
2023-04-01T00:29:05.088Z,9.34
2023-04-01T00:30:05.065Z,9.34
2023-04-01T00:31:05.096Z,9.34
2023-04-01T00:32:05.166Z,9.34
2023-04-01T00:33:05.136Z,9.33
2023-04-01T00:34:05.154Z,9.33
2023-04-01T00:35:05.115Z,9.33
2023-04-01T00:36:05.014Z,9.33
2023-04-01T00:37:05.010Z,9.33
2023-04-01T00:38:05.001Z,9.32
2023-04-01T00:39:04.995Z,9.32
2023-04-01T00:40:04.974Z,9.32
2023-04-01T00:41:04.945Z,9.33
2023-04-01T00:42:04.939Z,9.32
2023-04-01T00:43:04.930Z,9.32
2023-04-01T00:44:04.920Z,9.33
2023-04-01T00:45:05.017Z,9.32
2023-04-01T00:46:04.892Z,9.32
2023-04-01T00:47:05.002Z,9.33
2023-04-01T00:48:04.888Z,9.30
2023-04-01T00:49:04.871Z,9.32
2023-04-01T00:50:04.860Z,9.32
2023-04-01T00:51:04.881Z,9.32
2023-04-01T00:52:04.850Z,9.32
2023-04-01T00:53:04.833Z,9.32
2023-04-01T00:54:04.819Z,9.34
2023-04-01T00:55:05.030Z,9.30
2023-04-01T00:56:04.796Z,9.33
2023-04-01T00:57:05.308Z,9.32
2023-04-01T00:58:04.785Z,9.32
2023-04-01T00:59:04.991Z,9.30
2023-04-01T01:00:04.745Z,9.32
2023-04-01T01:01:04.892Z,9.32
2023-04-01T01:02:04.853Z,9.32
2023-04-01T01:03:04.805Z,9.32
2023-04-01T01:04:05.462Z,9.32
2023-04-01T01:05:04.743Z,9.32
2023-04-01T01:06:04.694Z,9.33
2023-04-01T01:07:04.687Z,9.32
2023-04-01T01:08:04.687Z,9.30
2023-04-01T01:09:04.911Z,9.30
2023-04-01T01:10:04.674Z,9.29
2023-04-01T01:11:04.633Z,9.30
2023-04-01T01:12:04.660Z,9.32
2023-04-01T01:13:04.679Z,9.30
2023-04-01T01:14:04.619Z,9.30
2023-04-01T01:15:04.655Z,9.32
2023-04-01T01:16:04.583Z,9.30
2023-04-01T01:17:04.627Z,9.32
2023-04-01T01:18:04.595Z,9.33
2023-04-01T01:19:04.565Z,9.33
2023-04-01T01:20:09.873Z,9.33
2023-04-01T01:21:04.587Z,9.34
2023-04-01T01:22:04.543Z,9.34
2023-04-01T01:23:04.542Z,9.36
2023-04-01T01:24:04.482Z,9.34
2023-04-01T01:25:04.524Z,9.33
2023-04-01T01:26:04.494Z,9.36
2023-04-01T01:27:04.465Z,9.34
2023-04-01T01:28:04.485Z,9.33
2023-04-01T01:29:04.476Z,9.36
2023-04-01T01:30:04.524Z,9.34
2023-04-01T01:31:04.503Z,9.34
2023-04-01T01:32:04.426Z,9.34
2023-04-01T01:33:04.493Z,9.34
2023-04-01T01:34:04.383Z,9.34
2023-04-01T01:35:04.387Z,9.33
2023-04-01T01:36:04.404Z,9.36
2023-04-01T01:37:04.348Z,9.36
2023-04-01T01:38:04.331Z,9.34
2023-04-01T01:39:04.332Z,9.36
2023-04-01T01:40:04.365Z,9.36
2023-04-01T01:41:04.369Z,9.36
2023-04-01T01:42:04.292Z,9.34
2023-04-01T01:43:04.290Z,9.36
2023-04-01T01:44:04.306Z,9.34
2023-04-01T01:45:04.254Z,9.34
2023-04-01T01:46:04.280Z,9.32
2023-04-01T01:47:04.275Z,9.33
2023-04-01T01:48:04.272Z,9.33
2023-04-01T01:49:04.218Z,9.32
2023-04-01T01:50:04.247Z,9.33
2023-04-01T01:51:04.212Z,9.32
2023-04-01T01:52:04.268Z,9.32
2023-04-01T01:53:04.212Z,9.32
2023-04-01T01:54:04.194Z,9.32
2023-04-01T01:55:04.232Z,9.30
2023-04-01T01:56:04.214Z,9.27
2023-04-01T01:57:04.732Z,9.27
2023-04-01T01:58:04.485Z,9.29
2023-04-01T01:59:04.306Z,9.29
2023-04-01T02:00:04.392Z,9.29
2023-04-01T02:01:04.795Z,9.26
2023-04-01T02:02:04.521Z,9.27
2023-04-01T02:03:04.417Z,9.29
2023-04-01T02:04:04.086Z,9.26
2023-04-01T02:05:04.110Z,9.26
2023-04-01T02:06:04.345Z,9.26
2023-04-01T02:07:04.538Z,9.22
2023-04-01T02:08:04.046Z,9.23
2023-04-01T02:09:04.012Z,9.23
2023-04-01T02:10:03.984Z,9.23
2023-04-01T02:11:04.002Z,9.22
2023-04-01T02:12:03.975Z,9.23
2023-04-01T02:13:03.988Z,9.22
2023-04-01T02:14:03.949Z,9.19
2023-04-01T02:15:03.971Z,9.22
2023-04-01T02:16:03.967Z,9.19
2023-04-01T02:17:03.916Z,9.18
2023-04-01T02:18:03.959Z,9.18
2023-04-01T02:19:03.888Z,9.18
2023-04-01T02:20:03.896Z,9.18
2023-04-01T02:21:03.872Z,9.18
2023-04-01T02:22:03.913Z,9.18
2023-04-01T02:23:03.896Z,9.19
2023-04-01T02:24:03.845Z,9.16
2023-04-01T02:25:03.846Z,9.18
2023-04-01T02:26:03.838Z,9.16
2023-04-01T02:27:03.818Z,9.15
2023-04-01T02:28:03.834Z,9.16
2023-04-01T02:29:03.818Z,9.15
2023-04-01T02:30:03.786Z,9.15
2023-04-01T02:31:03.818Z,9.15
2023-04-01T02:32:03.777Z,9.15
2023-04-01T02:33:03.764Z,9.15
2023-04-01T02:34:03.784Z,9.15
2023-04-01T02:35:03.731Z,9.16
2023-04-01T02:36:03.724Z,9.15
2023-04-01T02:37:03.687Z,9.16
2023-04-01T02:38:03.702Z,9.14
2023-04-01T02:39:03.712Z,9.14
2023-04-01T02:40:03.685Z,9.14
2023-04-01T02:41:03.665Z,9.14
2023-04-01T02:42:03.704Z,9.14
2023-04-01T02:43:03.646Z,9.12
2023-04-01T02:44:03.686Z,9.14
2023-04-01T02:45:03.622Z,9.14
2023-04-01T02:46:03.604Z,9.14
2023-04-01T02:47:03.864Z,9.12
2023-04-01T02:48:03.672Z,9.12
2023-04-01T02:49:03.584Z,9.14
2023-04-01T02:50:03.622Z,9.14
2023-04-01T02:51:03.545Z,9.12
2023-04-01T02:52:03.551Z,9.12
2023-04-01T02:53:03.540Z,9.14
2023-04-01T02:54:03.532Z,9.09
2023-04-01T02:55:03.672Z,9.14
2023-04-01T02:56:03.532Z,9.11
2023-04-01T02:57:03.573Z,9.12
2023-04-01T02:58:03.507Z,9.11
2023-04-01T02:59:03.531Z,9.12
2023-04-01T03:00:03.467Z,9.09
2023-04-01T03:01:03.556Z,9.11
2023-04-01T03:02:03.485Z,9.12
2023-04-01T03:03:03.598Z,9.12
2023-04-01T03:04:03.432Z,9.12
2023-04-01T03:05:03.418Z,9.12
2023-04-01T03:06:03.439Z,9.12
2023-04-01T03:07:03.442Z,9.11
2023-04-01T03:08:03.395Z,9.11
2023-04-01T03:09:03.371Z,9.09
2023-04-01T03:10:03.358Z,9.11
2023-04-01T03:11:03.378Z,9.12
2023-04-01T03:12:03.365Z,9.12
2023-04-01T03:13:03.323Z,9.11
2023-04-01T03:14:03.327Z,9.11
2023-04-01T03:15:10.997Z,9.12
2023-04-01T03:16:03.426Z,9.11
2023-04-01T03:17:03.301Z,9.11
2023-04-01T03:18:03.292Z,9.11
2023-04-01T03:19:03.322Z,9.09
2023-04-01T03:20:03.253Z,9.11
2023-04-01T03:21:03.246Z,9.11
2023-04-01T03:22:03.279Z,9.09
2023-04-01T03:23:03.246Z,9.11
2023-04-01T03:24:03.216Z,9.12
2023-04-01T03:25:03.202Z,9.12
2023-04-01T03:26:03.180Z,9.12
2023-04-01T03:27:03.309Z,9.12
2023-04-01T03:28:03.194Z,9.12
2023-04-01T03:29:03.164Z,9.12
2023-04-01T03:30:03.207Z,9.12
2023-04-01T03:31:03.192Z,9.14
2023-04-01T03:32:03.229Z,9.15
2023-04-01T03:33:03.359Z,9.15
2023-04-01T03:34:03.122Z,9.16
2023-04-01T03:35:03.332Z,9.16
2023-04-01T03:36:03.196Z,9.16
2023-04-01T03:37:03.118Z,9.15
2023-04-01T03:38:03.265Z,9.16
2023-04-01T03:39:03.254Z,9.16
2023-04-01T03:40:03.278Z,9.16
2023-04-01T03:41:03.048Z,9.15
2023-04-01T03:42:03.046Z,9.16
2023-04-01T03:43:03.088Z,9.16
2023-04-01T03:44:03.073Z,9.16
2023-04-01T03:45:02.989Z,9.16
2023-04-01T03:46:03.044Z,9.15
2023-04-01T03:47:02.996Z,9.16
2023-04-01T03:48:03.104Z,9.16
2023-04-01T03:49:02.931Z,9.18
2023-04-01T03:50:02.965Z,9.18
2023-04-01T03:51:02.927Z,9.19
2023-04-01T03:52:02.930Z,9.19
2023-04-01T03:53:02.915Z,9.18
2023-04-01T03:54:02.910Z,9.19
2023-04-01T03:55:02.982Z,9.18
2023-04-01T03:56:02.866Z,9.18
2023-04-01T03:57:02.890Z,9.18
2023-04-01T03:58:02.864Z,9.22
2023-04-01T03:59:02.825Z,9.18
2023-04-01T04:00:02.920Z,9.18
2023-04-01T04:01:02.958Z,9.18
2023-04-01T04:02:02.800Z,9.16
2023-04-01T04:03:02.856Z,9.18
2023-04-01T04:04:02.850Z,9.18
2023-04-01T04:05:02.774Z,9.19
2023-04-01T04:06:02.811Z,9.18
2023-04-01T04:07:02.811Z,9.16
2023-04-01T04:08:02.947Z,9.16
2023-04-01T04:09:02.918Z,9.19
2023-04-01T04:10:02.775Z,9.18
2023-04-01T04:11:02.809Z,9.18
2023-04-01T04:12:02.712Z,9.19
2023-04-01T04:13:02.690Z,9.18
2023-04-01T04:14:02.731Z,9.22
2023-04-01T04:15:02.661Z,9.19
2023-04-01T04:16:02.810Z,9.22
2023-04-01T04:17:02.661Z,9.22
2023-04-01T04:18:02.775Z,9.22
2023-04-01T04:19:02.629Z,9.19
2023-04-01T04:20:02.621Z,9.19
2023-04-01T04:21:02.624Z,9.19
2023-04-01T04:22:02.659Z,9.18
2023-04-01T04:23:02.634Z,9.18
2023-04-01T04:24:02.613Z,9.22
2023-04-01T04:25:02.552Z,9.19
2023-04-01T04:26:02.557Z,9.18
2023-04-01T04:27:02.560Z,9.18
2023-04-01T04:28:02.545Z,9.16
2023-04-01T04:29:02.602Z,9.18
2023-04-01T04:30:02.554Z,9.18
2023-04-01T04:31:02.548Z,9.18
2023-04-01T04:32:02.622Z,9.18
2023-04-01T04:33:02.467Z,9.19
2023-04-01T04:34:02.448Z,9.19
2023-04-01T04:35:02.535Z,9.19
2023-04-01T04:36:02.467Z,9.16
2023-04-01T04:37:02.424Z,9.18
2023-04-01T04:38:02.444Z,9.19
2023-04-01T04:39:02.423Z,9.18
2023-04-01T04:40:02.452Z,9.18
2023-04-01T04:41:02.379Z,9.18
2023-04-01T04:42:02.374Z,9.18
2023-04-01T04:43:02.377Z,9.18
2023-04-01T04:44:02.382Z,9.18
2023-04-01T04:45:02.338Z,9.16
2023-04-01T04:46:02.346Z,9.19
2023-04-01T04:47:02.395Z,9.18
2023-04-01T04:48:02.346Z,9.16
2023-04-01T04:49:02.288Z,9.16
2023-04-01T04:50:02.262Z,9.16
2023-04-01T04:51:02.338Z,9.18
2023-04-01T04:52:02.276Z,9.19
2023-04-01T04:53:02.225Z,9.18
2023-04-01T04:54:02.347Z,9.19
2023-04-01T04:55:02.258Z,9.18
2023-04-01T04:56:02.321Z,9.18
2023-04-01T04:57:02.322Z,9.16
2023-04-01T04:58:02.266Z,9.16
2023-04-01T04:59:02.368Z,9.16
2023-04-01T05:00:02.329Z,9.18
2023-04-01T05:01:02.215Z,9.16
2023-04-01T05:02:02.147Z,9.16
2023-04-01T05:03:02.181Z,9.16
2023-04-01T05:04:02.121Z,9.16
2023-04-01T05:05:02.217Z,9.18
2023-04-01T05:06:02.066Z,9.18
2023-04-01T05:07:02.088Z,9.16
2023-04-01T05:08:02.049Z,9.18
2023-04-01T05:09:02.051Z,9.16
2023-04-01T05:10:02.163Z,9.18
2023-04-01T05:11:02.074Z,9.18
2023-04-01T05:12:02.332Z,9.18
2023-04-01T05:13:01.985Z,9.18
2023-04-01T05:14:01.981Z,9.18
2023-04-01T05:15:01.998Z,9.18
2023-04-01T05:16:01.984Z,9.16
2023-04-01T05:17:01.971Z,9.18
2023-04-01T05:18:01.962Z,9.16
2023-04-01T05:19:01.943Z,9.18
2023-04-01T05:20:02.030Z,9.19
2023-04-01T05:21:01.966Z,9.16
2023-04-01T05:22:02.207Z,9.16
2023-04-01T05:23:01.883Z,9.16
2023-04-01T05:24:01.884Z,9.18
2023-04-01T05:25:01.868Z,9.19
2023-04-01T05:26:01.871Z,9.18
2023-04-01T05:27:02.193Z,9.19
2023-04-01T05:28:01.838Z,9.19
2023-04-01T05:29:01.805Z,9.22
2023-04-01T05:30:01.859Z,9.22
2023-04-01T05:31:01.976Z,9.22
2023-04-01T05:32:01.782Z,9.22
2023-04-01T05:33:01.868Z,9.24
2023-04-01T05:34:01.744Z,9.23
2023-04-01T05:35:01.742Z,9.23
2023-04-01T05:36:01.831Z,9.26
2023-04-01T05:37:01.729Z,9.24
2023-04-01T05:38:01.733Z,9.24
2023-04-01T05:39:01.711Z,9.26
2023-04-01T05:40:01.737Z,9.24
2023-04-01T05:41:01.696Z,9.26
2023-04-01T05:42:01.677Z,9.26
2023-04-01T05:43:01.693Z,9.27
2023-04-01T05:44:01.659Z,9.27
2023-04-01T05:45:01.645Z,9.30
2023-04-01T05:46:01.698Z,9.30
2023-04-01T05:47:01.630Z,9.32
2023-04-01T05:48:01.655Z,9.32
2023-04-01T05:49:01.656Z,9.30
2023-04-01T05:50:01.661Z,9.32
2023-04-01T05:51:01.608Z,9.33
2023-04-01T05:52:01.598Z,9.34
2023-04-01T05:53:01.568Z,9.37
2023-04-01T05:54:01.549Z,9.36
2023-04-01T05:55:01.573Z,9.40
2023-04-01T05:56:05.676Z,9.36
2023-04-01T05:57:01.645Z,9.41
2023-04-01T05:58:01.506Z,9.42
2023-04-01T05:59:01.511Z,9.44
2023-04-01T06:00:01.540Z,9.44
2023-04-01T06:01:09.320Z,9.44
2023-04-01T06:02:01.474Z,9.42
2023-04-01T06:03:01.662Z,9.45
2023-04-01T06:04:01.561Z,9.45
2023-04-01T06:05:01.454Z,9.45
2023-04-01T06:06:01.440Z,9.44
2023-04-01T06:07:01.424Z,9.47
2023-04-01T06:08:01.393Z,9.47
2023-04-01T06:09:01.382Z,9.51
2023-04-01T06:10:01.483Z,9.50
2023-04-01T06:11:01.400Z,9.50
2023-04-01T06:12:01.352Z,9.52
2023-04-01T06:13:01.374Z,9.52
2023-04-01T06:14:01.330Z,9.52
2023-04-01T06:15:01.368Z,9.54
2023-04-01T06:16:01.447Z,9.54
2023-04-01T06:17:01.313Z,9.54
2023-04-01T06:18:01.348Z,9.54
2023-04-01T06:19:01.344Z,9.52
2023-04-01T06:20:01.307Z,9.52
2023-04-01T06:21:01.310Z,9.55
2023-04-01T06:22:01.246Z,9.48
2023-04-01T06:23:01.320Z,9.48
2023-04-01T06:24:01.248Z,9.51
2023-04-01T06:25:01.248Z,9.52
2023-04-01T06:26:01.478Z,9.52
2023-04-01T06:27:01.260Z,9.50
2023-04-01T06:28:01.557Z,9.51
2023-04-01T06:29:01.441Z,9.51
2023-04-01T06:30:01.336Z,9.55
2023-04-01T06:31:01.181Z,9.57
2023-04-01T06:32:01.259Z,9.59
2023-04-01T06:33:01.244Z,9.57
2023-04-01T06:34:01.162Z,9.51
2023-04-01T06:35:01.123Z,9.52
2023-04-01T06:36:01.176Z,9.54
2023-04-01T06:37:01.135Z,9.55
2023-04-01T06:38:01.078Z,9.54
2023-04-01T06:39:01.148Z,9.57
2023-04-01T06:40:01.093Z,9.59
2023-04-01T06:41:01.063Z,9.60
2023-04-01T06:42:01.099Z,9.59
2023-04-01T06:43:01.070Z,9.60
2023-04-01T06:44:01.064Z,9.60
2023-04-01T06:45:01.080Z,9.62
2023-04-01T06:46:01.252Z,9.62
2023-04-01T06:47:00.983Z,9.63
2023-04-01T06:48:01.143Z,9.65
2023-04-01T06:49:01.003Z,9.63
2023-04-01T06:50:00.949Z,9.67
2023-04-01T06:51:00.939Z,9.69
2023-04-01T06:52:00.980Z,9.70
2023-04-01T06:53:00.928Z,9.67
2023-04-01T06:54:00.926Z,9.67
2023-04-01T06:55:00.903Z,9.69
2023-04-01T06:56:00.874Z,9.70
2023-04-01T06:57:00.914Z,9.73
2023-04-01T06:58:00.885Z,9.75
2023-04-01T06:59:00.895Z,9.75
2023-04-01T07:00:01.231Z,9.73
2023-04-01T07:01:00.959Z,9.69
2023-04-01T07:02:00.831Z,9.70
2023-04-01T07:03:00.944Z,9.72
2023-04-01T07:04:00.827Z,9.72
2023-04-01T07:05:00.927Z,9.72
2023-04-01T07:06:00.814Z,9.70
2023-04-01T07:07:00.770Z,9.72
2023-04-01T07:08:00.902Z,9.73
2023-04-01T07:09:01.518Z,9.75
2023-04-01T07:10:00.785Z,9.77
2023-04-01T07:11:00.726Z,9.75
2023-04-01T07:12:00.711Z,9.72
2023-04-01T07:13:00.782Z,9.78
2023-04-01T07:14:00.706Z,9.75
2023-04-01T07:15:00.677Z,9.78
2023-04-01T07:16:00.806Z,9.80
2023-04-01T07:17:00.719Z,9.83
2023-04-01T07:18:00.687Z,9.81
2023-04-01T07:19:00.675Z,9.85
2023-04-01T07:20:00.913Z,9.88
2023-04-01T07:21:00.711Z,9.87
2023-04-01T07:22:00.615Z,9.87
2023-04-01T07:23:00.634Z,9.84
2023-04-01T07:24:00.645Z,9.84
2023-04-01T07:25:00.612Z,9.90
2023-04-01T07:26:00.587Z,9.91
2023-04-01T07:27:00.555Z,9.96
2023-04-01T07:28:00.572Z,9.96
2023-04-01T07:29:00.590Z,9.98
2023-04-01T07:30:00.509Z,9.98
2023-04-01T07:31:00.606Z,10.01
2023-04-01T07:32:00.504Z,9.99
2023-04-01T07:33:00.747Z,9.96
2023-04-01T07:34:00.868Z,9.98
2023-04-01T07:35:00.516Z,10.01
2023-04-01T07:36:00.467Z,10.01
2023-04-01T07:37:00.482Z,10.01
2023-04-01T07:38:00.441Z,10.05
2023-04-01T07:39:00.621Z,10.05
2023-04-01T07:40:00.490Z,10.09
2023-04-01T07:41:00.431Z,10.08
2023-04-01T07:42:00.418Z,10.10
2023-04-01T07:43:00.428Z,10.10
2023-04-01T07:44:00.537Z,10.12
2023-04-01T07:45:00.374Z,10.14
2023-04-01T07:46:00.637Z,10.16
2023-04-01T07:47:00.406Z,10.20
2023-04-01T07:48:00.439Z,10.21
2023-04-01T07:49:00.358Z,10.23
2023-04-01T07:50:00.295Z,10.20
2023-04-01T07:51:00.334Z,10.18
2023-04-01T07:52:00.296Z,10.21
2023-04-01T07:53:00.290Z,10.24
2023-04-01T07:54:00.316Z,10.26
2023-04-01T07:55:00.283Z,10.20
2023-04-01T07:56:00.231Z,10.23
2023-04-01T07:57:00.416Z,10.26
2023-04-01T07:58:00.222Z,10.26
2023-04-01T07:59:00.206Z,10.24
2023-04-01T08:00:00.221Z,10.31
2023-04-01T08:01:00.498Z,10.35
2023-04-01T08:02:00.232Z,10.35
2023-04-01T08:03:00.502Z,10.38
2023-04-01T08:04:00.403Z,10.42
2023-04-01T08:05:00.513Z,10.43
2023-04-01T08:06:00.481Z,10.41
2023-04-01T08:07:00.515Z,10.39
2023-04-01T08:08:00.912Z,10.42
2023-04-01T08:09:00.341Z,10.42
2023-04-01T08:10:00.455Z,10.41
2023-04-01T08:11:00.419Z,10.41
2023-04-01T08:12:00.112Z,10.42
2023-04-01T08:13:00.093Z,10.46
2023-04-01T08:14:00.159Z,10.55
2023-04-01T08:15:00.054Z,10.62
2023-04-01T08:16:00.167Z,10.62
2023-04-01T08:17:00.017Z,10.62
2023-04-01T08:18:00.069Z,10.62
2023-04-01T08:19:00.041Z,10.65
2023-04-01T08:20:00.093Z,10.61
2023-04-01T08:21:00.123Z,10.64
2023-04-01T08:22:00.238Z,10.61
2023-04-01T08:22:59.965Z,10.60
2023-04-01T08:23:59.966Z,10.62
2023-04-01T08:24:59.985Z,10.61
2023-04-01T08:26:00.003Z,10.61
2023-04-01T08:26:59.934Z,10.65
2023-04-01T08:27:59.976Z,10.68
2023-04-01T08:28:59.894Z,10.68
2023-04-01T08:29:59.992Z,10.65
2023-04-01T08:30:59.932Z,10.72
2023-04-01T08:31:59.881Z,10.75
2023-04-01T08:32:59.934Z,10.76
2023-04-01T08:33:59.839Z,10.82
2023-04-01T08:34:59.845Z,10.83
2023-04-01T08:35:59.926Z,10.85
2023-04-01T08:36:59.804Z,10.87
2023-04-01T08:37:59.937Z,10.90
2023-04-01T08:38:59.813Z,10.87
2023-04-01T08:39:59.879Z,10.91
2023-04-01T08:40:59.810Z,10.95
2023-04-01T08:41:59.737Z,11.03
2023-04-01T08:42:59.812Z,11.04
2023-04-01T08:43:59.838Z,10.95
2023-04-01T08:44:59.757Z,10.98
2023-04-01T08:45:59.895Z,10.98
2023-04-01T08:46:59.709Z,11.03
2023-04-01T08:47:59.889Z,11.03
2023-04-01T08:48:59.704Z,11.09
2023-04-01T08:49:59.896Z,11.11
2023-04-01T08:50:59.682Z,11.13
2023-04-01T08:51:59.858Z,11.13
2023-04-01T08:52:59.777Z,11.05
2023-04-01T08:53:59.779Z,11.09
2023-04-01T08:54:59.699Z,11.03
2023-04-01T08:55:59.787Z,11.00
2023-04-01T08:56:59.781Z,10.97
2023-04-01T08:57:59.780Z,10.94
2023-04-01T08:58:59.791Z,10.87
2023-04-01T08:59:59.629Z,10.93
2023-04-01T09:00:59.551Z,10.97
2023-04-01T09:01:59.585Z,10.94
2023-04-01T09:02:59.807Z,10.90
2023-04-01T09:03:59.656Z,10.91
2023-04-01T09:04:59.508Z,10.94
2023-04-01T09:05:59.521Z,10.97
2023-04-01T09:06:59.479Z,10.97
2023-04-01T09:07:59.579Z,10.93
2023-04-01T09:08:59.468Z,10.87
2023-04-01T09:09:59.450Z,10.91
2023-04-01T09:10:59.463Z,10.87
2023-04-01T09:11:59.434Z,10.91
2023-04-01T09:12:59.441Z,10.91
2023-04-01T09:13:59.404Z,10.91
2023-04-01T09:14:59.451Z,10.97
2023-04-01T09:15:59.445Z,11.01
2023-04-01T09:16:59.430Z,11.01
2023-04-01T09:17:59.431Z,11.05
2023-04-01T09:18:59.371Z,11.11
2023-04-01T09:19:59.333Z,11.13
2023-04-01T09:20:59.344Z,11.13
2023-04-01T09:21:59.381Z,11.13
2023-04-01T09:22:59.449Z,11.16
2023-04-01T09:23:59.302Z,11.19
2023-04-01T09:24:59.295Z,11.25
2023-04-01T09:25:59.274Z,11.28
2023-04-01T09:26:59.775Z,11.33
2023-04-01T09:27:59.268Z,11.36
2023-04-01T09:28:59.326Z,11.34
2023-04-01T09:29:59.258Z,11.34
2023-04-01T09:30:59.302Z,11.20
2023-04-01T09:31:59.263Z,11.15
2023-04-01T09:32:59.250Z,11.19
2023-04-01T09:33:59.344Z,11.25
2023-04-01T09:34:59.218Z,11.27
2023-04-01T09:35:59.185Z,11.22
2023-04-01T09:36:59.256Z,11.18
2023-04-01T09:38:00.144Z,11.22
2023-04-01T09:38:59.231Z,11.25
2023-04-01T09:39:59.178Z,11.27
2023-04-01T09:40:59.146Z,11.31
2023-04-01T09:41:59.195Z,11.36
2023-04-01T09:42:59.106Z,11.43
2023-04-01T09:43:59.283Z,11.43
2023-04-01T09:44:59.110Z,11.43
2023-04-01T09:45:59.222Z,11.43
2023-04-01T09:46:59.164Z,11.38
2023-04-01T09:47:59.237Z,11.43
2023-04-01T09:48:59.240Z,11.43
2023-04-01T09:49:59.440Z,11.46
2023-04-01T09:50:59.601Z,11.52
2023-04-01T09:51:59.309Z,11.58
2023-04-01T09:52:59.265Z,11.64
2023-04-01T09:53:59.187Z,11.70
2023-04-01T09:54:59.098Z,11.73
2023-04-01T09:55:59.031Z,11.76
2023-04-01T09:56:59.604Z,11.77
2023-04-01T09:57:59.119Z,11.82
2023-04-01T09:58:59.164Z,11.93
2023-04-01T09:59:58.927Z,12.03
2023-04-01T10:00:58.924Z,12.04
2023-04-01T10:01:58.952Z,12.10
2023-04-01T10:02:59.166Z,12.08
2023-04-01T10:03:58.952Z,11.95
2023-04-01T10:04:59.134Z,11.95
2023-04-01T10:05:58.951Z,11.99
2023-04-01T10:06:58.848Z,12.10
2023-04-01T10:07:58.845Z,12.13
2023-04-01T10:08:59.279Z,12.11
2023-04-01T10:09:58.830Z,12.14
2023-04-01T10:10:58.844Z,12.23
2023-04-01T10:11:58.796Z,12.30
2023-04-01T10:12:58.776Z,12.38
2023-04-01T10:13:58.811Z,12.38
2023-04-01T10:14:58.773Z,12.36
2023-04-01T10:15:58.784Z,12.43
2023-04-01T10:16:58.784Z,12.38
2023-04-01T10:17:58.887Z,12.44
2023-04-01T10:18:58.721Z,12.48
2023-04-01T10:19:58.785Z,12.54
2023-04-01T10:20:58.698Z,12.63
2023-04-01T10:21:58.698Z,12.53
2023-04-01T10:22:58.672Z,12.50
2023-04-01T10:23:58.695Z,12.55
2023-04-01T10:24:58.688Z,12.59
2023-04-01T10:25:58.684Z,12.58
2023-04-01T10:26:58.635Z,12.58
2023-04-01T10:27:58.746Z,12.54
2023-04-01T10:28:58.585Z,12.53
2023-04-01T10:29:58.602Z,12.48
2023-04-01T10:30:58.594Z,12.44
2023-04-01T10:31:58.604Z,12.32
2023-04-01T10:32:58.711Z,12.29
2023-04-01T10:33:58.571Z,12.29
2023-04-01T10:34:58.523Z,12.33
2023-04-01T10:35:58.584Z,12.35
2023-04-01T10:36:58.508Z,12.35
2023-04-01T10:37:58.536Z,12.33
2023-04-01T10:38:58.496Z,12.36
2023-04-01T10:39:58.532Z,12.44
2023-04-01T10:40:58.515Z,12.44
2023-04-01T10:41:58.529Z,12.51
2023-04-01T10:42:58.509Z,12.58
2023-04-01T10:43:58.446Z,12.62
2023-04-01T10:44:58.428Z,12.63
2023-04-01T10:45:58.542Z,12.69
2023-04-01T10:46:58.440Z,12.69
2023-04-01T10:47:58.517Z,12.71
2023-04-01T10:48:58.493Z,12.72
2023-04-01T10:49:58.382Z,12.66
2023-04-01T10:50:58.479Z,12.59
2023-04-01T10:51:58.401Z,12.53
2023-04-01T10:52:58.348Z,12.41
2023-04-01T10:53:58.321Z,12.32
2023-04-01T10:54:58.324Z,12.15
2023-04-01T10:55:58.313Z,12.10
2023-04-01T10:56:58.346Z,12.07
2023-04-01T10:57:58.317Z,12.05
2023-04-01T10:58:58.269Z,12.07
2023-04-01T10:59:58.284Z,12.10
2023-04-01T11:00:58.270Z,12.08
2023-04-01T11:02:09.903Z,12.04
2023-04-01T11:02:58.306Z,11.99
2023-04-01T11:03:58.350Z,11.96
2023-04-01T11:04:58.294Z,11.96
2023-04-01T11:05:58.234Z,11.93
2023-04-01T11:06:58.188Z,11.93
2023-04-01T11:08:06.093Z,11.95
2023-04-01T11:08:58.189Z,11.99
2023-04-01T11:09:58.209Z,11.95
2023-04-01T11:10:58.131Z,11.88
2023-04-01T11:11:58.141Z,11.84
2023-04-01T11:12:58.188Z,11.79
2023-04-01T11:13:58.156Z,11.84
2023-04-01T11:14:58.106Z,11.85
2023-04-01T11:15:58.148Z,11.85
2023-04-01T11:16:58.090Z,11.85
2023-04-01T11:17:58.096Z,11.91
2023-04-01T11:18:58.066Z,11.84
2023-04-01T11:19:58.183Z,11.85
2023-04-01T11:20:58.024Z,11.79
2023-04-01T11:21:58.037Z,11.74
2023-04-01T11:22:58.033Z,11.71
2023-04-01T11:24:05.235Z,11.70
2023-04-01T11:24:58.041Z,11.73
2023-04-01T11:25:58.002Z,11.79
2023-04-01T11:26:58.051Z,11.82
2023-04-01T11:27:57.998Z,11.76
2023-04-01T11:28:57.980Z,11.79
2023-04-01T11:30:00.045Z,11.79
2023-04-01T11:30:57.971Z,11.87
2023-04-01T11:31:57.940Z,11.88
2023-04-01T11:32:57.979Z,11.87
2023-04-01T11:33:57.933Z,11.84
2023-04-01T11:34:57.903Z,11.80
2023-04-01T11:35:57.895Z,11.77
2023-04-01T11:36:57.919Z,11.74
2023-04-01T11:37:57.879Z,11.76
2023-04-01T11:38:57.859Z,11.80
2023-04-01T11:39:58.294Z,11.84
2023-04-01T11:40:57.863Z,11.84
2023-04-01T11:41:57.836Z,11.82
2023-04-01T11:42:57.782Z,11.82
2023-04-01T11:43:57.830Z,11.85
2023-04-01T11:44:57.791Z,11.85
2023-04-01T11:45:57.820Z,11.85
2023-04-01T11:46:57.751Z,11.70
2023-04-01T11:47:57.770Z,11.73
2023-04-01T11:48:57.729Z,11.70
2023-04-01T11:49:57.789Z,11.73
2023-04-01T11:50:57.709Z,11.73
2023-04-01T11:51:57.702Z,11.70
2023-04-01T11:52:57.662Z,11.69
2023-04-01T11:53:57.672Z,11.73
2023-04-01T11:54:57.696Z,11.76
2023-04-01T11:55:57.993Z,11.69
2023-04-01T11:56:57.711Z,11.71
2023-04-01T11:57:57.690Z,11.74
2023-04-01T11:58:57.617Z,11.76
2023-04-01T11:59:57.635Z,11.74
2023-04-01T12:00:57.617Z,11.80
2023-04-01T12:01:57.617Z,11.84
2023-04-01T12:02:57.637Z,11.89
2023-04-01T12:03:57.858Z,11.97
2023-04-01T12:04:57.651Z,12.03
2023-04-01T12:05:57.612Z,12.04
2023-04-01T12:06:57.566Z,12.07
2023-04-01T12:07:57.557Z,12.04
2023-04-01T12:08:57.682Z,12.03
2023-04-01T12:09:57.512Z,12.00
2023-04-01T12:10:57.530Z,11.97
2023-04-01T12:11:57.497Z,11.93
2023-04-01T12:13:01.275Z,11.96
2023-04-01T12:13:57.464Z,11.97
2023-04-01T12:14:57.457Z,12.00
2023-04-01T12:15:57.546Z,12.03
2023-04-01T12:16:57.471Z,12.05
2023-04-01T12:17:57.485Z,12.07
2023-04-01T12:18:57.405Z,12.11
2023-04-01T12:19:57.484Z,12.17
2023-04-01T12:20:57.387Z,12.23
2023-04-01T12:21:57.534Z,12.23
2023-04-01T12:22:57.478Z,12.22
2023-04-01T12:23:57.368Z,12.22
2023-04-01T12:24:57.361Z,12.25
2023-04-01T12:25:57.400Z,12.29
2023-04-01T12:26:57.359Z,12.33
2023-04-01T12:27:57.317Z,12.35
2023-04-01T12:28:57.311Z,12.41
2023-04-01T12:29:57.292Z,12.35
2023-04-01T12:30:57.284Z,12.35
2023-04-01T12:31:57.293Z,12.35
2023-04-01T12:32:57.294Z,12.36
2023-04-01T12:33:57.265Z,12.36
2023-04-01T12:34:57.229Z,12.36
2023-04-01T12:35:57.320Z,12.35
2023-04-01T12:36:57.194Z,12.38
2023-04-01T12:37:57.196Z,12.43
2023-04-01T12:38:57.282Z,12.44
2023-04-01T12:39:57.187Z,12.43
2023-04-01T12:40:57.197Z,12.44
2023-04-01T12:41:57.186Z,12.50
2023-04-01T12:42:57.128Z,12.51
2023-04-01T12:43:57.151Z,12.58
2023-04-01T12:44:57.156Z,12.59
2023-04-01T12:45:57.171Z,12.61
2023-04-01T12:46:57.119Z,12.62
2023-04-01T12:47:57.188Z,12.55
2023-04-01T12:48:57.086Z,12.58
2023-04-01T12:49:57.071Z,12.55
2023-04-01T12:50:57.070Z,12.55
2023-04-01T12:51:57.063Z,12.58
2023-04-01T12:52:57.061Z,12.55
2023-04-01T12:53:57.011Z,12.61
2023-04-01T12:54:58.494Z,12.50
2023-04-01T12:55:57.092Z,12.51
2023-04-01T12:56:57.414Z,12.51
2023-04-01T12:57:57.083Z,12.53
2023-04-01T12:58:57.144Z,12.41
2023-04-01T12:59:57.056Z,12.35
2023-04-01T13:00:57.050Z,12.41
2023-04-01T13:01:57.251Z,12.50
2023-04-01T13:02:56.984Z,12.55
2023-04-01T13:03:57.043Z,12.59
2023-04-01T13:04:56.918Z,12.63
2023-04-01T13:05:56.973Z,12.66
2023-04-01T13:06:57.690Z,12.66